• Join FlightAware (Why Join?)
  • Login
  • US Flag 
04:45PM EST


 

Airport Tracker/Info


-or-


 

Live Flight TrackerFlight Track Log ✈ SWA470 ✈ 01-Jul-2013 ✈ KLAS - KMHT

Flight Track Log - Related Links

Times and Time Zones

All times are in EDT time to prevent confusion due to time zone crossing. See the SWA470 flight status page for this flight to view local times or setup timezone preferences in your user account.

Time Position Orientation Groundspeed Altitude Reporting Facility
EDT Latitude Longitude Course Direction KTS MPH feet Rate Location/Type
02:34PM 36.0769 -114.9789 83° East 218 251 5,700  Level Los Angeles Center
02:35PM 36.0872 -114.8794 83° East 279 321 8,100 2,040 Climbing Los Angeles Center
02:38PM 36.1833 -114.5845 90° East  Level FlightAware Approximate
02:38PM 36.1431 -114.5442 90° East 358 412 14,200  Level Los Angeles Center
02:39PM 36.1633 -114.4178 79° East 372 428 16,500 2,460 Climbing Los Angeles Center
02:40PM 36.1897 -114.2622 78° East 385 443 19,300 2,280 Climbing Los Angeles Center
02:42PM 36.2061 -114.1275 81° East 394 453 21,300 1,800 Climbing Los Angeles Center
02:43PM 36.2236 -113.9867 81° East 409 471 23,100 1,740 Climbing Los Angeles Center
02:44PM 36.2411 -113.8431 81° East 420 483 24,900 1,620 Climbing Los Angeles Center
02:45PM 36.2586 -113.6950 82° East 432 497 26,500 1,500 Climbing Los Angeles Center
02:46PM 36.2753 -113.5450 82° East 438 504 28,100 1,680 Climbing Los Angeles Center
02:47PM 36.2956 -113.3639 82° East 441 507 30,000 1,620 Climbing Los Angeles Center
02:48PM 36.3167 -113.2117 80° East 442 509 31,500 1,380 Climbing Los Angeles Center
02:49PM 36.3683 -113.0744 65° Northeast 440 506 32,900 1,260 Climbing Los Angeles Center
02:50PM 36.4175 -112.9353 66° East 441 507 34,200 780 Climbing Los Angeles Center
02:51PM 36.4953 -112.7197 66° East 431 496 35,000 300 Climbing Denver Center
02:52PM 36.5442 -112.5828 66° East 434 499 35,000 -60 Level Denver Center
02:53PM 36.5933 -112.4461 66° East 435 501 34,900  Descending Denver Center
02:55PM 36.6717 -112.2258 66° East 436 502 35,000  Climbing Los Angeles Center
02:56PM 36.7197 -112.0889 66° East 436 502 35,000  Level Los Angeles Center
02:57PM 36.7689 -111.9503 66° East 439 505 35,000  Level Los Angeles Center
02:58PM 36.8269 -111.7839 66° East 439 505 35,000  Level Los Angeles Center
02:59PM 36.8753 -111.6453 66° East 438 504 35,000  Level Los Angeles Center
03:00PM 36.9053 -111.5611 66° East 440 506 35,000  Level Denver Center
03:01PM 36.9558 -111.4200 66° East 443 510 35,000  Level Denver Center
03:02PM 37.0000 -111.2822 68° East 436 502 35,000  Level Denver Center
03:03PM 37.0475 -111.1433 67° East 436 502 35,000  Level Denver Center
03:04PM 37.0947 -111.0042 67° East 436 502 35,000  Level Denver Center
03:05PM 37.1514 -110.8358 67° East 438 504 35,000  Level Denver Center
03:06PM 37.1969 -110.6961 68° East 435 501 35,000  Level Denver Center
03:08PM 37.2771 -110.4533 67° East  Level FlightAware Approximate
03:08PM 37.3011 -110.3875 67° East 437 503 35,000  Level Denver Center
03:09PM 37.3481 -110.2472 67° East 437 503 35,000  Level Denver Center
03:10PM 37.4003 -110.0858 68° East 435 501 35,000  Level Denver Center
03:12PM 37.4610 -109.8934 68° East  Level FlightAware Approximate
03:12PM 37.4956 -109.7942 68° East 435 501 35,000  Level Denver Center
03:13PM 37.5403 -109.6600 67° East 433 498 35,000  Level Denver Center
03:15PM 37.6339 -109.3650 68° East 436 502 35,000  Level Denver Center
03:16PM 37.6775 -109.2311 68° East 433 498 35,000  Level Denver Center
03:17PM 37.7272 -109.0744 68° East 431 496 35,000  Level Denver Center
03:18PM 37.7697 -108.9408 68° East 430 495 35,000  Level Denver Center
03:20PM 37.8183 -108.7836 69° East 429 494 35,000  Level Denver Center
03:21PM 37.8614 -108.6489 68° East 430 495 35,000  Level Denver Center
03:22PM 37.9100 -108.4919 69° East 430 495 35,000  Level Denver Center
03:23PM 37.9511 -108.3564 69° East 430 495 35,000  Level Denver Center
03:24PM 37.9939 -108.2197 68° East 433 498 35,000  Level Denver Center
03:25PM 38.0425 -108.0608 69° East 433 498 35,000  Level Denver Center
03:27PM 38.1333 -107.7617 69° East 429 494 35,000  Level Denver Center
03:28PM 38.1744 -107.6253 69° East 431 496 35,000  Level Denver Center
03:29PM 38.2222 -107.4675 69° East 432 497 35,000  Level Denver Center
03:30PM 38.2625 -107.3306 69° East 432 497 35,000 -60 Level Denver Center
03:31PM 38.3119 -107.1642 69° East 435 501 34,900  Descending Denver Center
03:32PM 38.3394 -107.0139 77° East 440 506 35,000 480 Climbing Denver Center
03:33PM 38.3558 -106.8589 82° East 441 507 35,900 960 Climbing Denver Center
03:34PM 38.3758 -106.6758 82° East 437 503 37,000 480 Climbing Denver Center
03:35PM 38.3925 -106.5231 82° East 436 502 37,000  Level Denver Center
03:36PM 38.4094 -106.3689 82° East 440 506 37,000  Level Denver Center
03:37PM 38.4242 -106.2139 83° East 442 509 37,000  Level Denver Center
03:38PM 38.4439 -106.0386 82° East 439 505 37,000  Level Denver Center
03:39PM 38.4567 -105.8933 84° East 434 499 37,000  Level Denver Center
03:40PM 38.4750 -105.7233 82° East 433 498 37,000  Level Denver Center
03:41PM 38.4844 -105.6031 84° East 431 496 37,000  Level Denver Center
03:42PM 38.5228 -105.4439 73° East 416 479 37,000  Level Denver Center
03:43PM 38.5681 -105.2875 70° East 420 483 37,000  Level Denver Center
03:44PM 38.6003 -105.1767 70° East 417 480 37,000  Level Denver Center
03:46PM 38.6503 -104.9992 70° East 416 479 37,000  Level Denver Center
03:47PM 38.6881 -104.8650 70° East 416 479 37,000  Level Denver Center
03:48PM 38.7339 -104.7058 70° East 425 489 37,000  Level Denver Center
03:49PM 38.7703 -104.5708 71° East 421 484 37,000  Level Denver Center
03:50PM 38.8150 -104.4103 70° East 424 488 37,000  Level Denver Center
03:51PM 38.8517 -104.2758 71° East 420 483 37,000  Level Denver Center
03:52PM 38.8886 -104.1428 70° East 415 478 37,000  Level Denver Center
03:53PM 38.9311 -103.9853 71° East 417 480 37,000  Level Denver Center
03:54PM 38.9689 -103.8497 70° East 419 482 37,000  Level Denver Center
03:55PM 39.0117 -103.6906 71° East 421 484 37,000  Level Denver Center
03:56PM 39.0481 -103.5539 71° East 420 483 37,000  Level Denver Center
03:57PM 39.0897 -103.3953 71° East 420 483 37,000  Level Denver Center
03:58PM 39.1267 -103.2586 71° East 421 484 37,000  Level Denver Center
03:59PM 39.1678 -103.0981 72° East 422 486 37,000  Level Denver Center
04:00PM 39.2047 -102.9611 71° East 423 487 37,000  Level Denver Center
04:01PM 39.2403 -102.8239 71° East 423 487 37,000  Level Denver Center
04:02PM 39.2789 -102.6753 71° East 422 486 37,000  Level Denver Center
04:03PM 39.3194 -102.5167 72° East 419 482 37,000  Level Denver Center
04:04PM 39.3572 -102.3708 71° East 414 476 37,000  Level Denver Center
04:05PM 39.3919 -102.2361 72° East 414 476 37,000  Level Denver Center
04:06PM 39.4314 -102.0789 72° East 410 472 37,000  Level Denver Center
04:07PM 39.4656 -101.9439 72° East 413 475 37,000  Level Denver Center
04:08PM 39.5047 -101.7842 72° East 416 479 37,000  Level Denver Center
04:09PM 39.5392 -101.6467 72° East 420 483 37,000  Level Denver Center
04:10PM 39.5783 -101.4867 72° East 419 482 37,000  Level Denver Center
04:11PM 39.6072 -101.3703 72° East 425 489 37,000  Level Denver Center
04:12PM 39.6472 -101.2056 72° East 428 493 37,000  Level Denver Center
04:13PM 39.6861 -101.0431 73° East 426 490 37,000  Level Denver Center
04:15PM 39.7203 -100.9025 72° East 427 491 37,000  Level Denver Center
04:16PM 39.7647 -100.7161 73° East 426 490 37,000  Level Denver Center
04:17PM 39.7931 -100.5983 73° East 428 493 37,000  Level Denver Center
04:18PM 39.8367 -100.4128 73° East 422 486 37,000  Level Denver Center
04:19PM 39.8722 -100.2622 73° East 426 490 37,000  Level Denver Center
04:20PM 39.9061 -100.1153 73° East 425 489 37,000  Level Denver Center
04:21PM 39.9403 -99.9675 73° East 427 491 37,000  Level Denver Center
04:22PM 39.9806 -99.7881 74° East 431 496 37,000  Level Denver Center
04:23PM 40.0158 -99.6383 73° East 432 497 37,000  Level Denver Center
04:24PM 40.0500 -99.4889 73° East 433 498 37,000  Level Denver Center
04:25PM 40.0833 -99.3406 74° East 428 493 37,000  Level Denver Center
04:26PM 40.1158 -99.1903 74° East 430 495 37,000  Level Denver Center
04:27PM 40.1372 -99.1036 72° East 428 493 37,000  Level Minneapolis Center
04:28PM 40.1692 -98.9536 74° East 429 494 37,000  Level Minneapolis Center
04:29PM 40.2022 -98.8042 74° East 430 495 37,000  Level Minneapolis Center
04:30PM 40.2397 -98.6272 74° East 425 489 37,000  Level Minneapolis Center
04:31PM 40.2719 -98.4806 74° East 422 486 37,000  Level Minneapolis Center
04:32PM 40.3036 -98.3333 74° East 422 486 37,000  Level Minneapolis Center
04:33PM 40.3347 -98.1833 75° East 426 490 37,000  Level Minneapolis Center
04:34PM 40.3661 -98.0339 75° East 427 491 37,000  Level Minneapolis Center
04:35PM 40.3994 -97.8828 74° East 431 496 37,000  Level Minneapolis Center
04:36PM 40.4361 -97.7008 75° East 432 497 37,000  Level Minneapolis Center
04:37PM 40.4675 -97.5508 75° East 429 494 37,000  Level Minneapolis Center
04:38PM 40.4981 -97.4003 75° East 429 494 37,000  Level Minneapolis Center
04:39PM 40.5289 -97.2528 75° East 429 494 37,000  Level Minneapolis Center
04:40PM 40.5589 -97.1008 75° East 430 495 37,000  Level Minneapolis Center
04:41PM 40.5967 -96.9183 75° East 431 496 37,000  Level Minneapolis Center
04:42PM 40.6264 -96.7656 76° East 432 497 37,000  Level Minneapolis Center
04:43PM 40.6558 -96.6128 76° East 432 497 37,000  Level Minneapolis Center
04:44PM 40.6869 -96.4606 75° East 432 497 37,000  Level Minneapolis Center
04:45PM 40.7164 -96.3061 76° East 436 502 37,000  Level Minneapolis Center
04:46PM 40.7578 -96.0900 76° East 437 503 37,000  Level Minneapolis Center
04:47PM 40.7872 -95.9356 76° East 437 503 37,000  Level Minneapolis Center
04:48PM 40.8161 -95.7819 76° East 436 502 37,000  Level Minneapolis Center
04:49PM 40.8464 -95.6275 75° East 436 502 37,000  Level Minneapolis Center
04:51PM 40.8750 -95.4714 76° East 440 506 37,000  Level Minneapolis Center
04:52PM 40.9092 -95.2858 76° East 437 503 37,000  Level Minneapolis Center
04:53PM 40.9381 -95.1286 76° East 441 507 37,000  Level Minneapolis Center
04:54PM 40.9664 -94.9714 77° East 442 509 37,000  Level Minneapolis Center
04:55PM 40.9944 -94.8156 77° East 438 504 37,000  Level Minneapolis Center
04:56PM 41.0233 -94.6603 76° East 437 503 37,000  Level Minneapolis Center
04:57PM 41.0528 -94.4817 78° East 435 501 37,000  Level Minneapolis Center
04:58PM 41.0789 -94.3286 77° East 431 496 37,000  Level Minneapolis Center
04:59PM 41.1072 -94.1725 76° East 436 502 37,000  Level Minneapolis Center
05:00PM 41.1342 -94.0150 77° East 440 506 37,000  Level Minneapolis Center
05:01PM 41.1603 -93.8567 78° East 442 509 37,000  Level Minneapolis Center
05:02PM 41.1947 -93.6658 76° East 444 511 37,000  Level Minneapolis Center
05:03PM 41.2208 -93.5067 78° East 445 512 37,000  Level Minneapolis Center
05:05PM 41.2739 -93.1886 77° East 442 509 37,000  Level Minneapolis Center
05:06PM 41.2997 -93.0306 78° East 441 507 37,000 -60 Level Minneapolis Center
05:07PM 41.3300 -92.8403 78° East 437 503 36,900  Descending Chicago Center
05:08PM 41.3558 -92.6831 78° East 438 504 37,000  Climbing Chicago Center
05:09PM 41.3803 -92.5258 78° East 437 503 37,000  Level Chicago Center
05:10PM 41.4061 -92.3683 78° East 441 507 37,000  Level Chicago Center
05:11PM 41.4308 -92.2108 78° East 440 506 37,000  Level Chicago Center
05:12PM 41.4589 -92.0236 79° East 436 502 37,000  Level Chicago Center
05:13PM 41.4833 -91.8650 78° East 439 505 37,000  Level Chicago Center
05:14PM 41.5078 -91.7086 78° East 438 504 37,000 -60 Level Chicago Center
05:16PM 41.5256 -91.4972 84° East  Level FlightAware Approximate
05:16PM 41.5589 -91.3586 84° East 444 511 36,900  Level Chicago Center
05:17PM 41.5822 -91.1978 79° East 447 514 37,000  Climbing Chicago Center
05:18PM 41.6058 -91.0392 79° East 442 509 37,000  Level Chicago Center
05:20PM 41.6286 -90.8792 79° East 444 511 37,000  Level Chicago Center
05:21PM 41.6511 -90.7194 79° East 443 510 37,000  Level Chicago Center
05:22PM 41.6769 -90.5317 80° East 439 505 37,000  Level Chicago Center
05:23PM 41.6994 -90.3686 79° East 443 510 37,000  Level Chicago Center
05:24PM 41.7219 -90.2056 79° East 444 511 37,000  Level Chicago Center
05:25PM 41.7442 -90.0411 80° East 446 513 37,000  Level Chicago Center
05:26PM 41.7669 -89.8736 80° East 454 522 37,000  Level Chicago Center
05:27PM 41.7889 -89.7075 80° East 452 520 37,000  Level Chicago Center
05:28PM 41.8128 -89.5264 80° East 451 519 37,000  Level Chicago Center
05:29PM 41.8342 -89.3614 80° East 453 521 37,000  Level Chicago Center
05:30PM 41.8589 -89.1653 80° East 446 513 37,000  Level Chicago Center
05:31PM 41.8786 -89.0014 81° East 446 513 37,000  Level Chicago Center
05:32PM 41.9000 -88.8356 80° East 451 519 37,000  Level Chicago Center
05:33PM 41.9194 -88.6692 81° East 451 519 37,000  Level Chicago Center
05:34PM 41.9400 -88.5053 80° East 448 516 37,000  Level Chicago Center
05:35PM 41.9639 -88.3053 81° East 451 519 37,000  Level Chicago Center
05:36PM 41.9839 -88.1381 81° East 452 520 37,000  Level Chicago Center
05:37PM 42.0019 -87.9725 82° East 449 517 37,000  Level Chicago Center
05:38PM 42.0206 -87.8036 82° East 454 522 37,000  Level Chicago Center
05:39PM 42.0406 -87.6344 81° East 457 526 37,000  Level Chicago Center
05:40PM 42.0583 -87.4672 82° East 455 524 37,000  Level Chicago Center
05:41PM 42.0817 -87.2631 81° East 458 527 37,000 -60 Level Chicago Center
05:42PM 42.0994 -87.0956 82° East 456 525 36,900  Descending Chicago Center
05:43PM 42.1175 -86.9247 82° East 460 529 37,000  Climbing Chicago Center
05:44PM 42.0980 -86.8649 82° East  Level FlightAware Approximate
05:44PM 42.1353 -86.7553 82° East 459 528 37,000  Level Chicago Center
05:45PM 42.1553 -86.5661 82° East 461 531 36,900  Descending Chicago Center
05:46PM 42.1731 -86.3956 82° East 460 529 37,000  Climbing Chicago Center
05:47PM 42.1900 -86.2239 82° East 462 532 37,000  Level Chicago Center
05:48PM 42.2075 -86.0514 82° East 464 534 37,000  Level Chicago Center
05:50PM 42.2261 -85.8589 82° East 465 535 37,000  Level Chicago Center
05:51PM 42.2425 -85.6844 83° East 472 543 37,000 -60 Level Chicago Center
05:52PM 42.2589 -85.5094 83° East 473 544 36,900 -60 Descending Chicago Center
05:53PM 42.2767 -85.3328 82° East 477 549 36,900  Level Chicago Center
05:54PM 42.2928 -85.1592 83° East 472 543 37,000  Climbing Chicago Center
05:55PM 42.3114 -84.9497 83° East 470 541 37,000  Level Chicago Center
05:56PM 42.3267 -84.7733 83° East 474 545 37,000 -60 Level Chicago Center
05:57PM 42.3422 -84.5978 83° East 474 545 36,900  Descending Chicago Center
05:58PM 42.3575 -84.4208 83° East 474 545 37,000 60 Climbing Chicago Center
05:58PM 42.3625 -84.3011 87° East 472 543 37,000  Level Cleveland Center
06:00PM 42.3922 -83.9458 83° East 472 543 37,000 -60 Level Cleveland Center
06:01PM 42.4078 -83.7694 83° East 472 543 36,900  Descending Cleveland Center
06:02PM 42.4250 -83.5903 83° East 472 543 37,000  Climbing Cleveland Center
06:03PM 42.4375 -83.4278 84° East 477 549 37,000  Level Cleveland Center
06:04PM 42.4481 -83.2453 85° East 477 549 37,000  Level Cleveland Center
06:05PM 42.4606 -83.0656 85° East 477 549 37,000  Level Cleveland Center
06:06PM 42.4725 -82.8858 85° East 477 549 37,000  Level Cleveland Center
06:07PM 42.4844 -82.7033 85° East 477 549 37,000  Level Cleveland Center
06:08PM 42.4958 -82.5233 85° East 477 549 37,000  Level Cleveland Center
06:09PM 42.5092 -82.3408 84° East 477 549 37,000  Level Cleveland Center
06:10PM 42.5203 -82.1578 85° East 477 549 37,000  Level Cleveland Center
06:11PM 42.5308 -81.9750 85° East 477 549 37,000  Level Cleveland Center
06:12PM 42.5414 -81.7892 86° East 482 555 37,000  Level Cleveland Center
06:13PM 42.5558 -81.5922 84° East 482 555 37,000  Level Cleveland Center
06:14PM 42.5678 -81.4064 85° East 482 555 37,000  Level Cleveland Center
06:15PM 42.5772 -81.2231 86° East 482 555 37,000  Level Cleveland Center
06:16PM 42.5886 -81.0400 85° East 482 555 37,000  Level Cleveland Center
06:17PM 42.5975 -80.8539 86° East 488 562 37,000  Level Cleveland Center
06:18PM 42.6061 -80.6706 86° East 493 567 37,000  Level Cleveland Center
06:19PM 42.6164 -80.4817 86° East 498 573 37,000  Level Cleveland Center
06:20PM 42.6225 -80.3153 87° East 498 573 37,000  Level Cleveland Center
06:21PM 42.6322 -80.1317 86° East 493 567 37,000  Level Cleveland Center
06:22PM 42.6439 -79.9256 86° East 493 567 37,000  Level Cleveland Center
06:23PM 42.6553 -79.7392 85° East 498 573 37,000  Level Cleveland Center
06:24PM 42.6578 -79.5528 89° East 498 573 37,000  Level Cleveland Center
06:25PM 42.6683 -79.3633 86° East 498 573 37,000  Level Cleveland Center
06:26PM 42.6767 -79.1769 86° East 498 573 37,000  Level Cleveland Center
06:27PM 42.6806 -78.9875 88° East 493 567 37,000  Level Cleveland Center
06:28PM 42.6861 -78.8008 88° East 500 575 37,000  Level Cleveland Center
06:29PM 42.6936 -78.6114 87° East 500 575 37,000  Level Cleveland Center
06:30PM 42.6983 -78.4219 88° East 500 575 37,000  Level Cleveland Center
06:31PM 42.7050 -78.2297 87° East 500 575 37,000  Level Cleveland Center
06:32PM 42.7117 -78.0428 87° East 495 570 37,000 -60 Level Cleveland Center
06:33PM 42.7175 -77.8506 88° East 501 577 36,900  Descending Cleveland Center
06:34PM 42.7211 -77.6553 88° East 501 577 37,000  Climbing Cleveland Center
06:37PM 42.7317 -77.1106 88° East 498 573 37,000  Level Boston Center
06:38PM 42.7353 -76.9214 88° East 498 573 37,000  Level Boston Center
06:39PM 42.7386 -76.7264 89° East 498 573 37,000  Level Boston Center
06:40PM 42.7414 -76.5369 89° East 498 573 37,000  Level Boston Center
06:41PM 42.7439 -76.3450 89° East 498 573 37,000 -60 Level Boston Center
06:42PM 42.7461 -76.1556 89° East 498 573 36,900 -60 Descending Boston Center
06:43PM 42.7481 -75.9661 89° East 498 573 36,900  Level Boston Center
06:44PM 42.7475 -75.7739 90° East 498 573 36,900  Level Boston Center
06:45PM 42.7508 -75.5817 89° East 498 573 36,900  Level Boston Center
06:46PM 42.7497 -75.3950 90° East 493 567 36,900 -900 Level Boston Center
06:47PM 42.7519 -75.2225 89° East 498 573 35,200 -2,160 Descending Boston Center
06:48PM 42.7522 -75.0331 90° East 498 573 32,600 -2,400 Descending Boston Center
06:49PM 42.7522 -74.8464 90° East 492 566 30,400 -1,860 Descending Boston Center
06:50PM 42.7517 -74.6683 90° East 492 566 28,900 -780 Descending Boston Center
06:51PM 42.7506 -74.4986 90° East 467 537 28,900 -540 Level Boston Center
06:52PM 42.7514 -74.3289 90° East 452 520 27,900 -1,020 Descending Boston Center
06:53PM 42.7500 -74.1619 91° East 440 506 26,900 -1,020 Descending Boston Center
06:54PM 42.7461 -73.9978 92° East 440 506 25,900 -1,020 Descending Boston Center
06:55PM 42.7442 -73.8283 91° East 440 506 24,900 -1,020 Descending Boston Center
06:56PM 42.7544 -73.6475 86° East 440 506 23,900 -960 Descending Boston Center
06:57PM 42.7603 -73.4781 87° East 440 506 23,000 -1,020 Descending Boston Center
06:58PM 42.7658 -73.3167 87° East 440 506 21,900 -1,020 Descending Boston Center
06:59PM 42.7733 -73.1500 86° East 440 506 21,000 -1,020 Descending Boston Center
07:00PM 42.7764 -72.9775 89° East 440 506 19,900 -1,020 Descending Boston Center
07:01PM 42.7833 -72.8306 86° East 432 497 19,000 -840 Descending Boston Center
07:02PM 42.7919 -72.6719 86° East 413 475 18,300 -1,560 Descending Boston Center
07:03PM 42.7983 -72.5192 87° East 408 470 15,900 -2,280 Descending Boston Center
07:04PM 42.8067 -72.3383 86° East 402 463 13,300 -2,220 Descending Boston Center
07:05PM 42.8108 -72.1939 88° East 397 457 11,100 -1,500 Descending Boston Center
07:06PM 42.8167 -72.0722 86° East 362 417 10,300 -1,020 Descending Boston Center
07:07PM 42.8475 -71.9531 71° East 329 379 9,100 -1,380 Descending Boston Center
07:08PM 42.9033 -71.8761 45° Northeast 303 349 7,600 -1,500 Descending Boston Center
07:09PM 42.9694 -71.7847 45° Northeast 308 354 6,100 -1,500 Descending Boston Center
07:10PM 43.0211 -71.7158 44° Northeast 295 339 4,600 -1,500 Descending Boston Center
07:11PM 43.0853 -71.6269 45° Northeast 295 339 3,100 -960 Descending Boston Center
07:12PM 43.1000 -71.5500 75° East 252 290 2,900 -360 Descending KA90
07:13PM 43.0667 -71.5167 144° Southeast 187 215 2,500 -540 Descending KA90
07:14PM 43.0167 -71.4833 154° Southeast 166 191 1,900 -720 Descending KA90
07:15PM 42.9833 -71.4667 160° South 150 173 1,100 -780 Descending KA90
07:16PM 42.9500 -71.4500 160° South 137 158 400 5,700 Descending KA90
07:18PM 42.8686 -71.4006 156° South 148 170 19,000 5,880 Climbing Boston Center
07:19PM 42.8331 -71.3783 155° Southeast 148 170 19,000  Level Boston Center
07:22PM 42.9167 -71.4333 316° Northwest  Level FlightAware Approximate
07:29PM 42.9328 -71.4358 316° Northwest  Level Estimated
07:30PM 42.9328 -71.4358 316° Northwest  Level Estimated
07:31PM 42.9328 -71.4358 316° Northwest  Level Estimated